sensor_id;sensor_type;location;lat;lon;timestamp;temperature;humidity
8563;DHT22;16392;52.508;13.468;2023-08-20T00:02:23;24.80;99.90
8563;DHT22;16392;52.508;13.468;2023-08-20T00:04:50;24.80;99.90
8563;DHT22;16392;52.508;13.468;2023-08-20T00:07:18;24.70;99.90
8563;DHT22;16392;52.508;13.468;2023-08-20T00:09:44;24.70;99.90
8563;DHT22;16392;52.508;13.468;2023-08-20T00:12:11;24.60;99.90
8563;DHT22;16392;52.508;13.468;2023-08-20T00:14:56;24.60;99.90
8563;DHT22;16392;52.508;13.468;2023-08-20T00:17:25;24.60;99.90
8563;DHT22;16392;52.508;13.468;2023-08-20T00:19:53;24.50;99.90
8563;DHT22;16392;52.508;13.468;2023-08-20T00:22:21;24.60;99.90
8563;DHT22;16392;52.508;13.468;2023-08-20T00:24:48;24.50;99.90
8563;DHT22;16392;52.508;13.468;2023-08-20T00:27:15;24.50;99.90
8563;DHT22;16392;52.508;13.468;2023-08-20T00:29:42;24.50;99.90
8563;DHT22;16392;52.508;13.468;2023-08-20T00:32:10;24.50;99.90
8563;DHT22;16392;52.508;13.468;2023-08-20T00:34:36;24.40;99.90
8563;DHT22;16392;52.508;13.468;2023-08-20T00:37:03;24.40;99.90
8563;DHT22;16392;52.508;13.468;2023-08-20T00:39:30;24.40;99.90
8563;DHT22;16392;52.508;13.468;2023-08-20T00:41:56;24.40;99.90
8563;DHT22;16392;52.508;13.468;2023-08-20T00:44:23;24.40;99.90
8563;DHT22;16392;52.508;13.468;2023-08-20T00:46:50;24.40;99.90
8563;DHT22;16392;52.508;13.468;2023-08-20T00:49:18;24.40;99.90
8563;DHT22;16392;52.508;13.468;2023-08-20T00:51:45;24.40;99.90
8563;DHT22;16392;52.508;13.468;2023-08-20T00:54:12;24.40;99.90
8563;DHT22;16392;52.508;13.468;2023-08-20T00:56:39;24.40;99.90
8563;DHT22;16392;52.508;13.468;2023-08-20T00:59:05;24.50;99.90
8563;DHT22;16392;52.508;13.468;2023-08-20T01:01:32;24.50;99.90
8563;DHT22;16392;52.508;13.468;2023-08-20T01:03:59;24.50;99.90
8563;DHT22;16392;52.508;13.468;2023-08-20T01:06:35;24.50;99.90
8563;DHT22;16392;52.508;13.468;2023-08-20T01:09:09;24.50;99.90
8563;DHT22;16392;52.508;13.468;2023-08-20T01:11:47;24.60;99.90
8563;DHT22;16392;52.508;13.468;2023-08-20T01:14:17;24.60;99.90
8563;DHT22;16392;52.508;13.468;2023-08-20T01:16:45;24.60;99.90
8563;DHT22;16392;52.508;13.468;2023-08-20T01:19:17;24.60;99.90
8563;DHT22;16392;52.508;13.468;2023-08-20T01:21:56;24.70;99.90
8563;DHT22;16392;52.508;13.468;2023-08-20T01:24:38;24.80;99.90
8563;DHT22;16392;52.508;13.468;2023-08-20T01:27:28;24.70;99.90
8563;DHT22;16392;52.508;13.468;2023-08-20T01:30:02;24.70;99.90
8563;DHT22;16392;52.508;13.468;2023-08-20T01:32:29;24.60;99.90
8563;DHT22;16392;52.508;13.468;2023-08-20T01:34:56;24.60;99.90
8563;DHT22;16392;52.508;13.468;2023-08-20T01:37:23;24.50;99.90
8563;DHT22;16392;52.508;13.468;2023-08-20T01:39:49;24.50;99.90
8563;DHT22;16392;52.508;13.468;2023-08-20T01:42:16;24.40;99.90
8563;DHT22;16392;52.508;13.468;2023-08-20T01:44:43;24.40;99.90
8563;DHT22;16392;52.508;13.468;2023-08-20T01:47:11;24.30;99.90
8563;DHT22;16392;52.508;13.468;2023-08-20T01:49:37;24.30;99.90
8563;DHT22;16392;52.508;13.468;2023-08-20T01:52:04;24.20;99.90
8563;DHT22;16392;52.508;13.468;2023-08-20T01:54:31;24.20;99.90
8563;DHT22;16392;52.508;13.468;2023-08-20T01:56:58;24.20;99.90
8563;DHT22;16392;52.508;13.468;2023-08-20T01:59:24;24.20;99.90
8563;DHT22;16392;52.508;13.468;2023-08-20T02:01:51;24.10;99.90
8563;DHT22;16392;52.508;13.468;2023-08-20T02:04:19;24.10;99.90
8563;DHT22;16392;52.508;13.468;2023-08-20T02:06:46;24.00;99.90
8563;DHT22;16392;52.508;13.468;2023-08-20T02:09:12;24.00;99.90
8563;DHT22;16392;52.508;13.468;2023-08-20T02:11:39;23.90;99.90
8563;DHT22;16392;52.508;13.468;2023-08-20T02:14:05;23.90;99.90
8563;DHT22;16392;52.508;13.468;2023-08-20T02:16:32;23.80;99.90
8563;DHT22;16392;52.508;13.468;2023-08-20T02:18:59;23.80;99.90
8563;DHT22;16392;52.508;13.468;2023-08-20T02:21:28;23.80;99.90
8563;DHT22;16392;52.508;13.468;2023-08-20T02:23:55;23.70;99.90
8563;DHT22;16392;52.508;13.468;2023-08-20T02:26:22;23.70;99.90
8563;DHT22;16392;52.508;13.468;2023-08-20T02:28:48;23.60;99.90
8563;DHT22;16392;52.508;13.468;2023-08-20T02:31:15;23.60;99.90
8563;DHT22;16392;52.508;13.468;2023-08-20T02:33:42;23.60;99.90
8563;DHT22;16392;52.508;13.468;2023-08-20T02:36:08;23.60;99.90
8563;DHT22;16392;52.508;13.468;2023-08-20T02:38:36;23.50;99.90
8563;DHT22;16392;52.508;13.468;2023-08-20T02:41:03;23.50;99.90
8563;DHT22;16392;52.508;13.468;2023-08-20T02:43:29;23.50;99.90
8563;DHT22;16392;52.508;13.468;2023-08-20T02:45:56;23.50;99.90
8563;DHT22;16392;52.508;13.468;2023-08-20T02:48:22;23.50;99.90
8563;DHT22;16392;52.508;13.468;2023-08-20T02:50:52;23.50;99.90
8563;DHT22;16392;52.508;13.468;2023-08-20T02:53:19;23.40;99.90
8563;DHT22;16392;52.508;13.468;2023-08-20T02:55:47;23.40;99.90
8563;DHT22;16392;52.508;13.468;2023-08-20T02:58:13;23.30;99.90
8563;DHT22;16392;52.508;13.468;2023-08-20T03:00:40;23.30;99.90
8563;DHT22;16392;52.508;13.468;2023-08-20T03:03:07;23.30;99.90
8563;DHT22;16392;52.508;13.468;2023-08-20T03:05:35;23.30;99.90
8563;DHT22;16392;52.508;13.468;2023-08-20T03:08:02;23.20;99.90
8563;DHT22;16392;52.508;13.468;2023-08-20T03:10:30;23.20;99.90
8563;DHT22;16392;52.508;13.468;2023-08-20T03:12:58;23.10;99.90
8563;DHT22;16392;52.508;13.468;2023-08-20T03:15:26;23.10;99.90
8563;DHT22;16392;52.508;13.468;2023-08-20T03:17:52;23.10;99.90
8563;DHT22;16392;52.508;13.468;2023-08-20T03:20:19;23.00;99.90
8563;DHT22;16392;52.508;13.468;2023-08-20T03:22:46;23.00;99.90
8563;DHT22;16392;52.508;13.468;2023-08-20T03:25:13;23.00;99.90
8563;DHT22;16392;52.508;13.468;2023-08-20T03:27:39;23.00;99.90
8563;DHT22;16392;52.508;13.468;2023-08-20T03:30:08;23.00;99.90
8563;DHT22;16392;52.508;13.468;2023-08-20T03:32:35;22.90;99.90
8563;DHT22;16392;52.508;13.468;2023-08-20T03:35:02;22.90;99.90
8563;DHT22;16392;52.508;13.468;2023-08-20T03:37:28;22.80;99.90
8563;DHT22;16392;52.508;13.468;2023-08-20T03:39:55;22.80;99.90
8563;DHT22;16392;52.508;13.468;2023-08-20T03:42:21;22.80;99.90
8563;DHT22;16392;52.508;13.468;2023-08-20T03:44:48;22.80;99.90
8563;DHT22;16392;52.508;13.468;2023-08-20T03:47:16;22.70;99.90
8563;DHT22;16392;52.508;13.468;2023-08-20T03:49:45;22.70;99.90
8563;DHT22;16392;52.508;13.468;2023-08-20T03:52:12;22.60;99.90
8563;DHT22;16392;52.508;13.468;2023-08-20T03:54:39;22.60;99.90
8563;DHT22;16392;52.508;13.468;2023-08-20T03:57:05;22.60;99.90
8563;DHT22;16392;52.508;13.468;2023-08-20T03:59:32;22.50;99.90
8563;DHT22;16392;52.508;13.468;2023-08-20T04:01:58;22.50;99.90
8563;DHT22;16392;52.508;13.468;2023-08-20T04:04:26;22.50;99.90
8563;DHT22;16392;52.508;13.468;2023-08-20T04:06:53;22.40;99.90
8563;DHT22;16392;52.508;13.468;2023-08-20T04:09:20;22.50;99.90
8563;DHT22;16392;52.508;13.468;2023-08-20T04:11:47;22.40;99.90
8563;DHT22;16392;52.508;13.468;2023-08-20T04:14:13;22.40;99.90
8563;DHT22;16392;52.508;13.468;2023-08-20T04:16:40;22.40;99.90
8563;DHT22;16392;52.508;13.468;2023-08-20T04:19:06;22.40;99.90
8563;DHT22;16392;52.508;13.468;2023-08-20T04:21:34;22.30;99.90
8563;DHT22;16392;52.508;13.468;2023-08-20T04:24:01;22.40;99.90
8563;DHT22;16392;52.508;13.468;2023-08-20T04:26:27;22.40;99.90
8563;DHT22;16392;52.508;13.468;2023-08-20T04:28:54;22.30;99.90
8563;DHT22;16392;52.508;13.468;2023-08-20T04:31:21;22.40;99.90
8563;DHT22;16392;52.508;13.468;2023-08-20T04:33:48;22.40;99.90
8563;DHT22;16392;52.508;13.468;2023-08-20T04:36:14;22.50;99.90
8563;DHT22;16392;52.508;13.468;2023-08-20T04:38:42;22.80;99.90
8563;DHT22;16392;52.508;13.468;2023-08-20T04:41:09;23.00;99.90
8563;DHT22;16392;52.508;13.468;2023-08-20T04:43:35;23.30;99.90
8563;DHT22;16392;52.508;13.468;2023-08-20T04:46:02;23.50;99.90
8563;DHT22;16392;52.508;13.468;2023-08-20T04:48:28;23.70;99.90
8563;DHT22;16392;52.508;13.468;2023-08-20T04:50:55;23.70;99.90
8563;DHT22;16392;52.508;13.468;2023-08-20T04:53:22;23.70;99.90
8563;DHT22;16392;52.508;13.468;2023-08-20T04:55:50;23.90;99.90
8563;DHT22;16392;52.508;13.468;2023-08-20T04:58:16;24.10;99.90
8563;DHT22;16392;52.508;13.468;2023-08-20T05:00:43;24.30;99.90
8563;DHT22;16392;52.508;13.468;2023-08-20T05:03:10;24.30;99.90
8563;DHT22;16392;52.508;13.468;2023-08-20T05:05:36;24.20;99.90
8563;DHT22;16392;52.508;13.468;2023-08-20T05:08:03;23.60;99.90
8563;DHT22;16392;52.508;13.468;2023-08-20T05:10:30;23.50;99.90
8563;DHT22;16392;52.508;13.468;2023-08-20T05:12:58;23.80;99.90
8563;DHT22;16392;52.508;13.468;2023-08-20T05:15:24;24.30;99.90
8563;DHT22;16392;52.508;13.468;2023-08-20T05:17:51;24.70;99.90
8563;DHT22;16392;52.508;13.468;2023-08-20T05:20:18;24.90;99.90
8563;DHT22;16392;52.508;13.468;2023-08-20T05:22:44;24.90;99.90
8563;DHT22;16392;52.508;13.468;2023-08-20T05:25:11;24.50;99.90
8563;DHT22;16392;52.508;13.468;2023-08-20T05:27:37;24.20;99.90
8563;DHT22;16392;52.508;13.468;2023-08-20T05:30:07;24.40;99.90
8563;DHT22;16392;52.508;13.468;2023-08-20T05:32:34;24.30;99.90
8563;DHT22;16392;52.508;13.468;2023-08-20T05:35:01;24.60;99.90
8563;DHT22;16392;52.508;13.468;2023-08-20T05:37:29;25.40;99.90
8563;DHT22;16392;52.508;13.468;2023-08-20T05:39:56;25.40;99.90
8563;DHT22;16392;52.508;13.468;2023-08-20T05:42:23;25.40;99.90
8563;DHT22;16392;52.508;13.468;2023-08-20T05:44:49;25.10;99.90
8563;DHT22;16392;52.508;13.468;2023-08-20T05:47:17;25.30;99.90
8563;DHT22;16392;52.508;13.468;2023-08-20T05:49:44;25.40;99.90
8563;DHT22;16392;52.508;13.468;2023-08-20T05:52:11;25.20;99.90
8563;DHT22;16392;52.508;13.468;2023-08-20T05:54:37;25.50;99.90
8563;DHT22;16392;52.508;13.468;2023-08-20T05:57:04;25.30;99.90
8563;DHT22;16392;52.508;13.468;2023-08-20T05:59:31;25.30;99.90
8563;DHT22;16392;52.508;13.468;2023-08-20T06:01:58;25.00;99.90
8563;DHT22;16392;52.508;13.468;2023-08-20T06:04:26;25.30;99.90
8563;DHT22;16392;52.508;13.468;2023-08-20T06:06:52;24.80;99.90
8563;DHT22;16392;52.508;13.468;2023-08-20T06:09:19;25.00;99.90
8563;DHT22;16392;52.508;13.468;2023-08-20T06:11:46;24.80;99.90
8563;DHT22;16392;52.508;13.468;2023-08-20T06:14:13;25.10;99.90
8563;DHT22;16392;52.508;13.468;2023-08-20T06:16:41;25.30;99.90
8563;DHT22;16392;52.508;13.468;2023-08-20T06:19:08;25.70;99.90
8563;DHT22;16392;52.508;13.468;2023-08-20T06:21:35;25.80;99.90
8563;DHT22;16392;52.508;13.468;2023-08-20T06:24:02;25.50;99.90
8563;DHT22;16392;52.508;13.468;2023-08-20T06:26:29;25.30;99.90
8563;DHT22;16392;52.508;13.468;2023-08-20T06:28:56;25.20;99.90
8563;DHT22;16392;52.508;13.468;2023-08-20T06:31:22;24.80;99.90
8563;DHT22;16392;52.508;13.468;2023-08-20T06:33:49;24.80;99.90
8563;DHT22;16392;52.508;13.468;2023-08-20T06:36:17;24.70;99.90
8563;DHT22;16392;52.508;13.468;2023-08-20T06:38:57;24.50;99.90
8563;DHT22;16392;52.508;13.468;2023-08-20T06:41:24;24.50;99.90
8563;DHT22;16392;52.508;13.468;2023-08-20T06:43:50;24.50;99.90
8563;DHT22;16392;52.508;13.468;2023-08-20T06:46:17;24.90;99.90
8563;DHT22;16392;52.508;13.468;2023-08-20T06:48:44;25.00;99.90
8563;DHT22;16392;52.508;13.468;2023-08-20T06:51:11;25.30;99.90
8563;DHT22;16392;52.508;13.468;2023-08-20T06:53:39;25.10;99.90
8563;DHT22;16392;52.508;13.468;2023-08-20T06:56:14;25.00;99.90
8563;DHT22;16392;52.508;13.468;2023-08-20T06:58:42;24.60;99.90
8563;DHT22;16392;52.508;13.468;2023-08-20T07:01:09;24.50;99.90
8563;DHT22;16392;52.508;13.468;2023-08-20T07:03:38;24.50;99.90
8563;DHT22;16392;52.508;13.468;2023-08-20T07:06:05;24.50;99.90
8563;DHT22;16392;52.508;13.468;2023-08-20T07:08:32;24.60;99.90
8563;DHT22;16392;52.508;13.468;2023-08-20T07:10:59;24.60;99.90
8563;DHT22;16392;52.508;13.468;2023-08-20T07:13:27;24.60;99.90
8563;DHT22;16392;52.508;13.468;2023-08-20T07:15:54;24.50;99.90
8563;DHT22;16392;52.508;13.468;2023-08-20T07:18:20;24.60;99.90
8563;DHT22;16392;52.508;13.468;2023-08-20T07:20:47;24.50;99.90
8563;DHT22;16392;52.508;13.468;2023-08-20T07:23:14;24.40;99.90
8563;DHT22;16392;52.508;13.468;2023-08-20T07:25:41;24.40;99.90
8563;DHT22;16392;52.508;13.468;2023-08-20T07:28:09;24.50;99.90
8563;DHT22;16392;52.508;13.468;2023-08-20T07:30:37;24.70;99.90
8563;DHT22;16392;52.508;13.468;2023-08-20T07:33:05;24.90;99.90
8563;DHT22;16392;52.508;13.468;2023-08-20T07:35:32;25.20;99.90
8563;DHT22;16392;52.508;13.468;2023-08-20T07:37:58;25.40;99.90
8563;DHT22;16392;52.508;13.468;2023-08-20T07:40:25;25.60;99.90
8563;DHT22;16392;52.508;13.468;2023-08-20T07:42:51;25.70;99.90
8563;DHT22;16392;52.508;13.468;2023-08-20T07:45:18;25.90;99.90
8563;DHT22;16392;52.508;13.468;2023-08-20T07:47:46;25.90;99.90
8563;DHT22;16392;52.508;13.468;2023-08-20T07:50:12;26.20;99.90
8563;DHT22;16392;52.508;13.468;2023-08-20T07:52:39;25.90;99.90
8563;DHT22;16392;52.508;13.468;2023-08-20T07:55:06;26.30;99.90
8563;DHT22;16392;52.508;13.468;2023-08-20T07:57:33;25.80;99.90
8563;DHT22;16392;52.508;13.468;2023-08-20T07:59:59;25.30;99.90
8563;DHT22;16392;52.508;13.468;2023-08-20T08:02:28;25.40;99.90
8563;DHT22;16392;52.508;13.468;2023-08-20T08:04:56;24.90;99.90
8563;DHT22;16392;52.508;13.468;2023-08-20T08:07:23;25.00;99.90
8563;DHT22;16392;52.508;13.468;2023-08-20T08:09:49;25.30;99.90
8563;DHT22;16392;52.508;13.468;2023-08-20T08:12:16;25.70;99.90
8563;DHT22;16392;52.508;13.468;2023-08-20T08:14:43;25.70;99.90
8563;DHT22;16392;52.508;13.468;2023-08-20T08:17:09;25.40;99.90
8563;DHT22;16392;52.508;13.468;2023-08-20T08:19:36;25.40;99.90
8563;DHT22;16392;52.508;13.468;2023-08-20T08:22:04;26.10;99.90
8563;DHT22;16392;52.508;13.468;2023-08-20T08:24:31;25.90;99.90
8563;DHT22;16392;52.508;13.468;2023-08-20T08:26:57;26.30;99.90
8563;DHT22;16392;52.508;13.468;2023-08-20T08:29:24;27.00;99.90
8563;DHT22;16392;52.508;13.468;2023-08-20T08:31:51;27.30;99.90
8563;DHT22;16392;52.508;13.468;2023-08-20T08:34:17;26.70;99.90
8563;DHT22;16392;52.508;13.468;2023-08-20T08:36:44;26.80;99.90
8563;DHT22;16392;52.508;13.468;2023-08-20T08:39:13;27.30;99.90
8563;DHT22;16392;52.508;13.468;2023-08-20T08:41:41;28.70;99.90
8563;DHT22;16392;52.508;13.468;2023-08-20T08:44:09;28.30;76.20
8563;DHT22;16392;52.508;13.468;2023-08-20T08:46:38;28.00;99.90
8563;DHT22;16392;52.508;13.468;2023-08-20T08:49:05;29.10;1.00
8563;DHT22;16392;52.508;13.468;2023-08-20T08:51:34;29.30;1.00
8563;DHT22;16392;52.508;13.468;2023-08-20T08:54:02;28.30;1.00
8563;DHT22;16392;52.508;13.468;2023-08-20T08:56:30;29.30;1.00
8563;DHT22;16392;52.508;13.468;2023-08-20T08:58:56;30.80;1.00
8563;DHT22;16392;52.508;13.468;2023-08-20T09:01:23;32.00;1.00
8563;DHT22;16392;52.508;13.468;2023-08-20T09:03:50;32.80;99.90
8563;DHT22;16392;52.508;13.468;2023-08-20T09:06:17;32.80;99.90
8563;DHT22;16392;52.508;13.468;2023-08-20T09:08:44;32.70;99.90
8563;DHT22;16392;52.508;13.468;2023-08-20T09:11:11;33.00;38.50
8563;DHT22;16392;52.508;13.468;2023-08-20T09:13:41;33.30;99.90
8563;DHT22;16392;52.508;13.468;2023-08-20T09:16:10;33.60;1.00
8563;DHT22;16392;52.508;13.468;2023-08-20T09:18:38;33.30;1.00
8563;DHT22;16392;52.508;13.468;2023-08-20T09:21:06;32.70;99.90
8563;DHT22;16392;52.508;13.468;2023-08-20T09:23:34;33.90;1.00
8563;DHT22;16392;52.508;13.468;2023-08-20T09:26:02;34.50;99.90
8563;DHT22;16392;52.508;13.468;2023-08-20T09:28:29;34.70;96.60
8563;DHT22;16392;52.508;13.468;2023-08-20T09:31:08;35.00;1.00
8563;DHT22;16392;52.508;13.468;2023-08-20T09:33:35;34.80;1.00
8563;DHT22;16392;52.508;13.468;2023-08-20T09:36:03;35.00;1.00
8563;DHT22;16392;52.508;13.468;2023-08-20T09:38:30;35.30;1.00
8563;DHT22;16392;52.508;13.468;2023-08-20T09:41:03;35.50;1.00
8563;DHT22;16392;52.508;13.468;2023-08-20T09:43:30;34.90;1.00
8563;DHT22;16392;52.508;13.468;2023-08-20T09:46:02;34.40;1.00
8563;DHT22;16392;52.508;13.468;2023-08-20T09:48:33;34.70;1.00
8563;DHT22;16392;52.508;13.468;2023-08-20T09:51:04;34.60;1.00
8563;DHT22;16392;52.508;13.468;2023-08-20T09:53:35;34.90;1.00
8563;DHT22;16392;52.508;13.468;2023-08-20T09:56:09;35.10;1.00
8563;DHT22;16392;52.508;13.468;2023-08-20T09:58:37;34.80;1.00
8563;DHT22;16392;52.508;13.468;2023-08-20T10:01:04;35.20;1.00
8563;DHT22;16392;52.508;13.468;2023-08-20T10:03:33;35.20;1.00
8563;DHT22;16392;52.508;13.468;2023-08-20T10:06:00;35.30;1.00
8563;DHT22;16392;52.508;13.468;2023-08-20T10:08:27;35.20;1.00
8563;DHT22;16392;52.508;13.468;2023-08-20T10:10:54;34.80;1.00
8563;DHT22;16392;52.508;13.468;2023-08-20T10:13:21;34.50;1.00
8563;DHT22;16392;52.508;13.468;2023-08-20T10:15:49;33.70;1.00
8563;DHT22;16392;52.508;13.468;2023-08-20T10:18:19;32.80;99.90
8563;DHT22;16392;52.508;13.468;2023-08-20T10:20:49;32.60;1.00
8563;DHT22;16392;52.508;13.468;2023-08-20T10:23:20;33.10;99.90
8563;DHT22;16392;52.508;13.468;2023-08-20T10:25:54;33.50;27.80
8563;DHT22;16392;52.508;13.468;2023-08-20T10:28:32;33.90;1.00
8563;DHT22;16392;52.508;13.468;2023-08-20T10:31:07;34.30;1.00
8563;DHT22;16392;52.508;13.468;2023-08-20T10:33:50;34.00;1.00
8563;DHT22;16392;52.508;13.468;2023-08-20T10:36:19;33.70;1.00
8563;DHT22;16392;52.508;13.468;2023-08-20T10:38:49;33.90;1.00
8563;DHT22;16392;52.508;13.468;2023-08-20T10:41:16;34.40;1.00
8563;DHT22;16392;52.508;13.468;2023-08-20T10:43:50;34.60;1.00
8563;DHT22;16392;52.508;13.468;2023-08-20T10:46:18;34.40;1.00
8563;DHT22;16392;52.508;13.468;2023-08-20T10:48:47;34.50;1.00
8563;DHT22;16392;52.508;13.468;2023-08-20T10:51:15;34.70;1.00
8563;DHT22;16392;52.508;13.468;2023-08-20T10:54:04;34.80;1.00
8563;DHT22;16392;52.508;13.468;2023-08-20T10:56:40;34.90;1.00
8563;DHT22;16392;52.508;13.468;2023-08-20T10:59:08;34.80;1.00
8563;DHT22;16392;52.508;13.468;2023-08-20T11:01:35;34.70;1.00
8563;DHT22;16392;52.508;13.468;2023-08-20T11:04:04;34.70;1.00
8563;DHT22;16392;52.508;13.468;2023-08-20T11:06:33;34.70;1.00
8563;DHT22;16392;52.508;13.468;2023-08-20T11:09:00;34.50;1.00
8563;DHT22;16392;52.508;13.468;2023-08-20T11:11:30;33.10;1.00
8563;DHT22;16392;52.508;13.468;2023-08-20T11:13:57;32.60;1.00
8563;DHT22;16392;52.508;13.468;2023-08-20T11:16:23;32.80;1.00
8563;DHT22;16392;52.508;13.468;2023-08-20T11:18:52;33.60;1.00
8563;DHT22;16392;52.508;13.468;2023-08-20T11:21:19;34.00;1.00
8563;DHT22;16392;52.508;13.468;2023-08-20T11:23:46;33.40;1.00
8563;DHT22;16392;52.508;13.468;2023-08-20T11:26:17;33.20;1.00
8563;DHT22;16392;52.508;13.468;2023-08-20T11:28:46;33.00;1.00
8563;DHT22;16392;52.508;13.468;2023-08-20T11:31:13;32.30;1.00
8563;DHT22;16392;52.508;13.468;2023-08-20T11:33:40;32.80;1.00
8563;DHT22;16392;52.508;13.468;2023-08-20T11:36:07;33.30;1.00
8563;DHT22;16392;52.508;13.468;2023-08-20T11:38:33;33.40;1.00
8563;DHT22;16392;52.508;13.468;2023-08-20T11:41:00;33.70;1.00
8563;DHT22;16392;52.508;13.468;2023-08-20T11:43:27;33.10;1.00
8563;DHT22;16392;52.508;13.468;2023-08-20T11:45:55;33.10;1.00
8563;DHT22;16392;52.508;13.468;2023-08-20T11:48:22;32.80;1.00
8563;DHT22;16392;52.508;13.468;2023-08-20T11:50:50;32.30;1.00
8563;DHT22;16392;52.508;13.468;2023-08-20T11:53:21;32.40;1.00
8563;DHT22;16392;52.508;13.468;2023-08-20T11:55:48;32.50;1.00
8563;DHT22;16392;52.508;13.468;2023-08-20T11:58:18;32.90;1.00
8563;DHT22;16392;52.508;13.468;2023-08-20T12:00:49;32.40;1.00
8563;DHT22;16392;52.508;13.468;2023-08-20T12:03:18;32.60;1.00
8563;DHT22;16392;52.508;13.468;2023-08-20T12:05:45;33.10;1.00
8563;DHT22;16392;52.508;13.468;2023-08-20T12:08:15;33.20;1.00
8563;DHT22;16392;52.508;13.468;2023-08-20T12:10:47;33.10;1.00
8563;DHT22;16392;52.508;13.468;2023-08-20T12:13:19;32.40;1.00
8563;DHT22;16392;52.508;13.468;2023-08-20T12:15:47;32.00;1.00
8563;DHT22;16392;52.508;13.468;2023-08-20T12:18:15;32.50;1.00
8563;DHT22;16392;52.508;13.468;2023-08-20T12:20:43;33.10;1.00
8563;DHT22;16392;52.508;13.468;2023-08-20T12:23:09;32.80;1.00
8563;DHT22;16392;52.508;13.468;2023-08-20T12:25:37;32.80;1.00
8563;DHT22;16392;52.508;13.468;2023-08-20T12:28:05;32.80;1.00
8563;DHT22;16392;52.508;13.468;2023-08-20T12:30:32;33.00;1.00
8563;DHT22;16392;52.508;13.468;2023-08-20T12:33:02;33.50;1.00
8563;DHT22;16392;52.508;13.468;2023-08-20T12:35:29;33.20;1.00
8563;DHT22;16392;52.508;13.468;2023-08-20T12:37:57;33.40;1.00
8563;DHT22;16392;52.508;13.468;2023-08-20T12:40:24;33.30;1.00
8563;DHT22;16392;52.508;13.468;2023-08-20T12:42:51;33.30;1.00
8563;DHT22;16392;52.508;13.468;2023-08-20T12:45:23;33.70;1.00
8563;DHT22;16392;52.508;13.468;2023-08-20T12:47:50;33.60;1.00
8563;DHT22;16392;52.508;13.468;2023-08-20T12:50:17;33.30;1.00
8563;DHT22;16392;52.508;13.468;2023-08-20T12:52:45;33.60;1.00
8563;DHT22;16392;52.508;13.468;2023-08-20T12:55:16;33.90;99.90
8563;DHT22;16392;52.508;13.468;2023-08-20T12:57:52;34.00;99.90
8563;DHT22;16392;52.508;13.468;2023-08-20T13:00:20;33.90;99.90
8563;DHT22;16392;52.508;13.468;2023-08-20T13:02:47;34.10;99.90
8563;DHT22;16392;52.508;13.468;2023-08-20T13:05:15;33.70;99.90
8563;DHT22;16392;52.508;13.468;2023-08-20T13:07:43;33.30;99.90
8563;DHT22;16392;52.508;13.468;2023-08-20T13:10:10;31.80;1.00
8563;DHT22;16392;52.508;13.468;2023-08-20T13:12:41;32.00;1.00
8563;DHT22;16392;52.508;13.468;2023-08-20T13:15:08;32.30;1.00
8563;DHT22;16392;52.508;13.468;2023-08-20T13:17:36;32.30;1.00
8563;DHT22;16392;52.508;13.468;2023-08-20T13:20:05;32.80;99.90
8563;DHT22;16392;52.508;13.468;2023-08-20T13:22:34;33.30;99.90
8563;DHT22;16392;52.508;13.468;2023-08-20T13:25:01;33.80;99.90
8563;DHT22;16392;52.508;13.468;2023-08-20T13:27:29;33.70;99.90
8563;DHT22;16392;52.508;13.468;2023-08-20T13:29:58;32.90;99.90
8563;DHT22;16392;52.508;13.468;2023-08-20T13:32:25;31.60;1.00
8563;DHT22;16392;52.508;13.468;2023-08-20T13:34:52;30.80;1.00
8563;DHT22;16392;52.508;13.468;2023-08-20T13:37:19;30.70;1.00
8563;DHT22;16392;52.508;13.468;2023-08-20T13:39:45;30.80;1.00
8563;DHT22;16392;52.508;13.468;2023-08-20T13:42:12;31.20;1.00
8563;DHT22;16392;52.508;13.468;2023-08-20T13:44:42;31.70;1.00
8563;DHT22;16392;52.508;13.468;2023-08-20T13:47:10;31.70;99.90
8563;DHT22;16392;52.508;13.468;2023-08-20T13:49:36;31.50;99.90
8563;DHT22;16392;52.508;13.468;2023-08-20T13:52:04;31.40;99.90
8563;DHT22;16392;52.508;13.468;2023-08-20T13:54:32;31.30;1.00
8563;DHT22;16392;52.508;13.468;2023-08-20T13:56:59;31.20;1.00
8563;DHT22;16392;52.508;13.468;2023-08-20T13:59:25;31.40;99.90
8563;DHT22;16392;52.508;13.468;2023-08-20T14:01:52;31.50;99.90
8563;DHT22;16392;52.508;13.468;2023-08-20T14:04:20;31.00;99.90
8563;DHT22;16392;52.508;13.468;2023-08-20T14:06:46;30.40;1.00
8563;DHT22;16392;52.508;13.468;2023-08-20T14:09:13;30.70;1.00
8563;DHT22;16392;52.508;13.468;2023-08-20T14:11:42;30.80;99.90
8563;DHT22;16392;52.508;13.468;2023-08-20T14:14:09;31.10;99.90
8563;DHT22;16392;52.508;13.468;2023-08-20T14:16:36;31.30;99.90
8563;DHT22;16392;52.508;13.468;2023-08-20T14:19:03;31.30;99.90
8563;DHT22;16392;52.508;13.468;2023-08-20T14:21:31;30.50;1.00
8563;DHT22;16392;52.508;13.468;2023-08-20T14:23:58;30.00;1.00
8563;DHT22;16392;52.508;13.468;2023-08-20T14:26:24;29.90;1.00
8563;DHT22;16392;52.508;13.468;2023-08-20T14:28:52;29.80;1.00
8563;DHT22;16392;52.508;13.468;2023-08-20T14:31:19;29.90;1.00
8563;DHT22;16392;52.508;13.468;2023-08-20T14:33:46;30.00;1.00
8563;DHT22;16392;52.508;13.468;2023-08-20T14:36:14;29.70;1.00
8563;DHT22;16392;52.508;13.468;2023-08-20T14:38:43;29.90;1.00
8563;DHT22;16392;52.508;13.468;2023-08-20T14:41:09;29.60;99.90
8563;DHT22;16392;52.508;13.468;2023-08-20T14:43:37;29.40;99.90
8563;DHT22;16392;52.508;13.468;2023-08-20T14:46:04;29.20;99.90
8563;DHT22;16392;52.508;13.468;2023-08-20T14:48:31;29.20;99.90
8563;DHT22;16392;52.508;13.468;2023-08-20T14:50:58;29.20;99.90
8563;DHT22;16392;52.508;13.468;2023-08-20T14:53:25;29.30;99.90
8563;DHT22;16392;52.508;13.468;2023-08-20T14:55:54;29.30;99.90
8563;DHT22;16392;52.508;13.468;2023-08-20T14:58:21;29.20;99.90
8563;DHT22;16392;52.508;13.468;2023-08-20T15:00:48;29.30;99.90
8563;DHT22;16392;52.508;13.468;2023-08-20T15:03:15;29.40;99.90
8563;DHT22;16392;52.508;13.468;2023-08-20T15:05:42;29.70;99.90
8563;DHT22;16392;52.508;13.468;2023-08-20T15:08:08;29.70;99.90
8563;DHT22;16392;52.508;13.468;2023-08-20T15:10:35;29.80;99.90
8563;DHT22;16392;52.508;13.468;2023-08-20T15:13:03;29.80;99.90
8563;DHT22;16392;52.508;13.468;2023-08-20T15:15:31;29.80;99.90
8563;DHT22;16392;52.508;13.468;2023-08-20T15:17:57;29.80;99.90
8563;DHT22;16392;52.508;13.468;2023-08-20T15:20:24;29.90;99.90
8563;DHT22;16392;52.508;13.468;2023-08-20T15:22:51;29.90;99.90
8563;DHT22;16392;52.508;13.468;2023-08-20T15:25:17;29.70;99.90
8563;DHT22;16392;52.508;13.468;2023-08-20T15:27:44;29.80;99.90
8563;DHT22;16392;52.508;13.468;2023-08-20T15:30:12;30.00;1.00
8563;DHT22;16392;52.508;13.468;2023-08-20T15:32:41;30.10;1.00
8563;DHT22;16392;52.508;13.468;2023-08-20T15:35:08;30.30;1.00
8563;DHT22;16392;52.508;13.468;2023-08-20T15:37:35;30.40;1.00
8563;DHT22;16392;52.508;13.468;2023-08-20T15:40:01;30.50;99.90